createdAt,value
2023-04-18T00:02:10.839Z,6.30
2023-04-18T00:05:13.267Z,7.28
2023-04-18T00:08:15.570Z,4.68
2023-04-18T00:11:17.779Z,7.73
2023-04-18T00:14:20.820Z,5.72
2023-04-18T00:17:23.085Z,6.18
2023-04-18T00:20:28.189Z,4.72
2023-04-18T00:23:30.750Z,7.25
2023-04-18T00:26:32.967Z,5.27
2023-04-18T00:29:35.239Z,5.63
2023-04-18T00:32:37.753Z,5.22
2023-04-18T00:35:40.404Z,5.68
2023-04-18T00:38:43.275Z,4.88
2023-04-18T00:41:45.570Z,5.00
2023-04-18T00:44:48.434Z,7.03
2023-04-18T00:47:50.788Z,5.45
2023-04-18T00:50:53.663Z,5.90
2023-04-18T00:53:55.990Z,4.88
2023-04-18T00:56:58.251Z,4.87
2023-04-18T01:00:01.276Z,5.28
2023-04-18T01:03:04.646Z,5.43
2023-04-18T01:06:07.002Z,5.10
2023-04-18T01:09:09.494Z,6.70
2023-04-18T01:12:11.732Z,5.37
2023-04-18T01:15:13.885Z,6.75
2023-04-18T01:18:20.848Z,5.13
2023-04-18T01:21:23.161Z,6.15
2023-04-18T01:24:26.855Z,6.93
2023-04-18T01:27:28.994Z,5.23
2023-04-18T01:30:31.248Z,5.93
2023-04-18T01:33:33.921Z,5.75
2023-04-18T01:36:36.720Z,5.53
2023-04-18T01:39:38.928Z,6.38
2023-04-18T01:42:41.174Z,5.67
2023-04-18T01:45:46.258Z,6.15
2023-04-18T01:48:48.493Z,6.60
2023-04-18T01:51:50.798Z,7.88
2023-04-18T01:54:52.925Z,7.28
2023-04-18T01:57:55.249Z,6.70
2023-04-18T02:00:57.890Z,5.45
2023-04-18T02:04:00.316Z,8.32
2023-04-18T02:07:02.562Z,7.93
2023-04-18T02:10:05.653Z,6.72
2023-04-18T02:13:08.266Z,6.80
2023-04-18T02:16:12.723Z,6.40
2023-04-18T02:19:16.278Z,5.97
2023-04-18T02:22:18.522Z,7.32
2023-04-18T02:25:23.653Z,8.35
2023-04-18T02:28:25.895Z,7.10
2023-04-18T02:31:28.464Z,9.35
2023-04-18T02:34:30.720Z,8.20
2023-04-18T02:37:33.004Z,8.93
2023-04-18T02:40:35.292Z,9.27
2023-04-18T02:43:37.500Z,7.03
2023-04-18T02:46:39.860Z,8.18
2023-04-18T02:49:46.133Z,8.23
2023-04-18T02:52:48.685Z,7.85
2023-04-18T02:55:52.829Z,7.43
2023-04-18T02:58:57.879Z,7.33
2023-04-18T03:02:22.751Z,7.95
2023-04-18T03:05:29.557Z,8.07
2023-04-18T03:08:34.863Z,8.05
2023-04-18T03:11:37.308Z,9.48
2023-04-18T03:14:40.276Z,10.37
2023-04-18T03:17:42.740Z,12.00
2023-04-18T03:20:45.184Z,8.63
2023-04-18T03:23:47.369Z,8.60
2023-04-18T03:26:50.097Z,8.13
2023-04-18T03:29:55.545Z,8.77
2023-04-18T03:32:59.549Z,10.43
2023-04-18T03:36:01.980Z,10.98
2023-04-18T03:39:04.781Z,8.98
2023-04-18T03:42:07.002Z,9.68
2023-04-18T03:45:10.492Z,7.73
2023-04-18T03:48:13.580Z,9.75
2023-04-18T03:51:18.785Z,8.82
2023-04-18T03:54:21.957Z,7.93
2023-04-18T03:57:24.886Z,8.48
2023-04-18T04:00:27.405Z,10.90
2023-04-18T04:03:38.547Z,8.63
2023-04-18T04:06:41.880Z,10.57
2023-04-18T04:09:44.158Z,8.88
2023-04-18T04:12:47.185Z,9.70
2023-04-18T04:15:49.587Z,9.10
2023-04-18T04:18:51.825Z,8.63
2023-04-18T04:21:57.698Z,9.25
2023-04-18T04:25:00.869Z,12.30
2023-04-18T04:28:09.454Z,11.90
2023-04-18T04:31:22.423Z,9.83
2023-04-18T04:34:25.464Z,9.32
2023-04-18T04:37:27.977Z,10.57
2023-04-18T04:40:39.999Z,10.45
2023-04-18T04:43:47.902Z,12.27
2023-04-18T04:46:54.577Z,13.10
2023-04-18T04:50:00.969Z,9.93
2023-04-18T04:53:03.215Z,11.98
2023-04-18T04:56:06.060Z,10.43
2023-04-18T04:59:09.388Z,11.07
2023-04-18T05:02:15.926Z,12.83
2023-04-18T05:05:29.976Z,12.45
2023-04-18T05:08:32.143Z,11.57
2023-04-18T05:11:34.320Z,11.65
2023-04-18T05:14:36.533Z,12.20
2023-04-18T05:17:38.918Z,11.33
2023-04-18T05:20:41.232Z,12.85
2023-04-18T05:23:43.404Z,12.23
2023-04-18T05:26:45.685Z,11.98
2023-04-18T05:29:49.420Z,9.38
2023-04-18T05:32:51.718Z,10.60
2023-04-18T05:35:54.634Z,12.77
2023-04-18T05:38:56.972Z,13.50
2023-04-18T05:41:59.232Z,10.73
2023-04-18T05:45:01.615Z,11.77
2023-04-18T05:48:04.058Z,12.00
2023-04-18T05:51:06.460Z,11.85
2023-04-18T05:54:08.751Z,12.75
2023-04-18T05:57:21.035Z,12.15
2023-04-18T06:00:27.924Z,10.80
2023-04-18T06:03:33.755Z,11.77
2023-04-18T06:06:43.945Z,9.90
2023-04-18T06:09:46.484Z,10.43
2023-04-18T06:12:48.704Z,10.75
2023-04-18T06:15:51.059Z,7.90
2023-04-18T06:18:53.429Z,7.93
2023-04-18T06:21:56.986Z,7.18
2023-04-18T06:24:59.290Z,5.10
2023-04-18T06:28:01.683Z,4.15
2023-04-18T06:31:04.088Z,3.90
2023-04-18T06:34:06.430Z,3.10
2023-04-18T06:37:08.822Z,4.05
2023-04-18T06:40:12.066Z,4.43
2023-04-18T06:43:14.300Z,3.38
2023-04-18T06:46:16.851Z,3.50
2023-04-18T06:49:25.127Z,4.03
2023-04-18T06:52:28.705Z,4.95
2023-04-18T06:55:33.280Z,2.45
2023-04-18T06:58:36.153Z,4.13
2023-04-18T07:01:44.384Z,2.50
2023-04-18T07:04:47.057Z,4.20
2023-04-18T07:07:49.452Z,3.22
2023-04-18T07:10:51.790Z,4.50
2023-04-18T07:13:54.079Z,3.65
2023-04-18T07:16:57.744Z,3.22
2023-04-18T07:20:00.102Z,2.33
2023-04-18T07:23:02.431Z,3.78
2023-04-18T07:26:05.846Z,2.85
2023-04-18T07:29:08.219Z,4.15
2023-04-18T07:32:10.922Z,6.80
2023-04-18T07:35:13.290Z,4.00
2023-04-18T07:38:16.026Z,3.20
2023-04-18T07:41:18.205Z,3.25
2023-04-18T07:44:21.972Z,2.63
2023-04-18T07:47:24.482Z,2.92
2023-04-18T07:50:32.139Z,3.60
2023-04-18T07:53:34.421Z,2.88
2023-04-18T07:56:36.962Z,2.72
2023-04-18T07:59:39.310Z,2.30
2023-04-18T08:02:41.918Z,3.15
2023-04-18T08:05:44.388Z,2.43
2023-04-18T08:08:46.642Z,3.47
2023-04-18T08:11:50.750Z,4.97
2023-04-18T08:14:55.348Z,2.50
2023-04-18T08:18:00.862Z,1.85
2023-04-18T08:21:05.584Z,3.13
2023-04-18T08:24:08.458Z,2.75
2023-04-18T08:27:18.305Z,3.03
2023-04-18T08:30:20.854Z,4.28
2023-04-18T08:33:26.507Z,3.03
2023-04-18T08:36:28.884Z,3.30
2023-04-18T08:39:31.379Z,2.65
2023-04-18T08:42:34.177Z,2.38
2023-04-18T08:45:37.082Z,2.75
2023-04-18T08:48:39.476Z,3.13
2023-04-18T08:51:43.243Z,2.13
2023-04-18T08:54:47.256Z,2.92
2023-04-18T08:57:54.184Z,1.90
2023-04-18T09:00:56.942Z,3.25
2023-04-18T09:03:59.601Z,2.80
2023-04-18T09:07:22.323Z,3.03
2023-04-18T09:10:33.151Z,3.85
2023-04-18T09:13:39.688Z,4.85
2023-04-18T09:16:47.051Z,3.60
2023-04-18T09:19:50.361Z,3.00
2023-04-18T09:22:58.167Z,3.07
2023-04-18T09:26:01.525Z,1.55
2023-04-18T09:29:03.975Z,2.58
2023-04-18T09:32:07.215Z,2.58
2023-04-18T09:35:09.691Z,2.13
2023-04-18T09:38:12.093Z,2.03
2023-04-18T09:41:21.420Z,1.55
2023-04-18T09:44:24.869Z,3.17
2023-04-18T09:47:28.141Z,3.15
2023-04-18T09:50:31.872Z,6.55
2023-04-18T09:53:39.596Z,3.13
2023-04-18T09:56:45.563Z,3.20
2023-04-18T09:59:51.640Z,3.40
2023-04-18T10:02:59.419Z,3.85
2023-04-18T10:06:01.903Z,4.20
2023-04-18T10:09:05.869Z,2.43
2023-04-18T10:12:08.667Z,3.17
2023-04-18T10:15:12.070Z,2.15
2023-04-18T10:18:15.882Z,3.22
2023-04-18T10:21:18.141Z,3.53
2023-04-18T10:24:41.618Z,2.57
2023-04-18T10:27:49.901Z,3.00
2023-04-18T10:30:54.812Z,2.63
2023-04-18T10:37:04.974Z,2.42
2023-04-18T10:40:07.477Z,2.60
2023-04-18T10:43:09.812Z,2.88
2023-04-18T10:46:27.762Z,3.05
2023-04-18T11:04:23.229Z,4.80
2023-04-18T11:07:49.162Z,2.72
2023-04-18T11:10:58.239Z,4.38
2023-04-18T11:14:01.248Z,2.17
2023-04-18T11:17:15.599Z,6.40
2023-04-18T11:20:17.883Z,5.03
2023-04-18T11:23:23.020Z,3.15
2023-04-18T11:26:29.107Z,2.50
2023-04-18T11:29:31.407Z,2.85
2023-04-18T11:32:34.667Z,4.07
2023-04-18T11:35:41.161Z,2.20
2023-04-18T11:38:43.660Z,5.60
2023-04-18T11:41:50.583Z,3.05
2023-04-18T11:44:52.874Z,2.55
2023-04-18T11:47:57.019Z,1.77
2023-04-18T11:50:59.377Z,3.07
2023-04-18T11:54:02.266Z,5.10
2023-04-18T11:57:06.158Z,2.03
2023-04-18T12:00:12.339Z,3.08
2023-04-18T12:03:15.829Z,2.40
2023-04-18T12:06:18.382Z,3.37
2023-04-18T12:09:21.942Z,2.38
2023-04-18T12:12:24.292Z,5.22
2023-04-18T12:15:28.276Z,3.55
2023-04-18T12:18:31.526Z,2.28
2023-04-18T12:21:33.857Z,3.17
2023-04-18T12:24:36.234Z,4.40
2023-04-18T12:27:49.272Z,5.30
2023-04-18T12:30:51.499Z,3.78
2023-04-18T12:33:54.561Z,3.05
2023-04-18T12:36:57.077Z,2.77
2023-04-18T12:39:59.451Z,4.10
2023-04-18T12:43:03.526Z,3.35
2023-04-18T12:46:06.287Z,3.03
2023-04-18T12:49:08.468Z,2.70
2023-04-18T12:52:10.766Z,3.03
2023-04-18T12:55:13.402Z,5.10
2023-04-18T12:58:18.689Z,4.05
2023-04-18T13:01:21.244Z,2.63
2023-04-18T13:04:23.667Z,3.58
2023-04-18T13:07:26.136Z,2.80
2023-04-18T13:10:28.512Z,3.97
2023-04-18T13:13:30.746Z,3.58
2023-04-18T13:16:33.025Z,4.88
2023-04-18T13:19:35.306Z,3.17
2023-04-18T13:22:37.684Z,2.93
2023-04-18T13:25:39.903Z,2.60
2023-04-18T13:28:42.200Z,2.90
2023-04-18T13:31:44.617Z,3.97
2023-04-18T13:34:47.809Z,3.15
2023-04-18T13:37:50.074Z,2.50
2023-04-18T13:41:04.432Z,5.97
2023-04-18T13:44:13.483Z,4.35
2023-04-18T13:47:15.901Z,3.20
2023-04-18T13:50:18.187Z,2.85
2023-04-18T13:53:21.085Z,2.60
2023-04-18T13:56:23.395Z,2.53
2023-04-18T13:59:26.590Z,3.03
2023-04-18T14:02:29.174Z,4.15
2023-04-18T14:05:31.756Z,4.00
2023-04-18T14:08:34.002Z,2.80
2023-04-18T14:11:36.270Z,2.80
2023-04-18T14:14:38.522Z,2.80
2023-04-18T14:17:41.810Z,5.50
2023-04-18T14:20:45.004Z,3.17
2023-04-18T14:23:47.263Z,5.00
2023-04-18T14:26:49.542Z,3.33
2023-04-18T14:29:52.030Z,2.80
2023-04-18T14:32:54.553Z,3.70
2023-04-18T14:35:57.367Z,3.90
2023-04-18T14:38:59.604Z,3.57
2023-04-18T14:42:02.097Z,2.90
2023-04-18T14:45:05.257Z,6.28
2023-04-18T14:48:08.782Z,4.65
2023-04-18T14:51:12.430Z,4.78
2023-04-18T14:54:14.753Z,4.40
2023-04-18T14:57:17.072Z,6.68
2023-04-18T15:00:19.552Z,5.43
2023-04-18T15:03:21.979Z,3.45
2023-04-18T15:06:24.358Z,5.70
2023-04-18T15:09:26.542Z,3.03
2023-04-18T15:12:29.439Z,6.88
2023-04-18T15:15:35.068Z,3.55
2023-04-18T15:18:37.353Z,3.83
2023-04-18T15:21:39.556Z,3.38
2023-04-18T15:24:42.074Z,3.17
2023-04-18T15:27:44.286Z,5.32
2023-04-18T15:30:46.766Z,4.18
2023-04-18T15:33:49.061Z,4.90
2023-04-18T15:36:51.485Z,5.15
2023-04-18T15:39:53.759Z,3.77
2023-04-18T15:42:57.787Z,6.70
2023-04-18T15:46:00.172Z,3.72
2023-04-18T15:49:02.405Z,3.47
2023-04-18T15:52:06.399Z,3.33
2023-04-18T15:55:10.347Z,4.43
2023-04-18T15:58:13.257Z,3.60
2023-04-18T16:01:16.007Z,5.75
2023-04-18T16:04:18.426Z,4.18
2023-04-18T16:07:21.103Z,3.17
2023-04-18T16:10:23.281Z,3.70
2023-04-18T16:13:25.508Z,4.03
2023-04-18T16:16:28.561Z,2.42
2023-04-18T16:19:30.921Z,3.78
2023-04-18T16:22:33.237Z,4.68
2023-04-18T16:25:35.468Z,3.70
2023-04-18T16:28:37.776Z,3.75
2023-04-18T16:31:41.601Z,4.70
2023-04-18T16:34:43.819Z,4.03
2023-04-18T16:37:46.033Z,4.38
2023-04-18T16:40:48.254Z,4.33
2023-04-18T16:43:50.785Z,5.20
2023-04-18T16:46:53.020Z,8.60
2023-04-18T16:49:55.638Z,3.50
2023-04-18T16:52:57.878Z,5.07
2023-04-18T16:56:00.945Z,4.40
2023-04-18T16:59:04.095Z,6.75
2023-04-18T17:02:06.504Z,4.50
2023-04-18T17:05:12.193Z,5.72
2023-04-18T17:08:14.425Z,4.90
2023-04-18T17:11:16.715Z,4.93
2023-04-18T17:14:18.992Z,5.00
2023-04-18T17:17:21.296Z,5.20
2023-04-18T17:20:23.769Z,4.95
2023-04-18T17:23:26.173Z,4.40
2023-04-18T17:26:28.375Z,4.23
2023-04-18T17:29:30.548Z,6.00
2023-04-18T17:32:32.898Z,5.40
2023-04-18T17:35:35.202Z,5.15
2023-04-18T17:38:37.508Z,5.68
2023-04-18T17:41:39.831Z,5.83
2023-04-18T17:44:42.136Z,6.78
2023-04-18T17:47:44.340Z,6.45
2023-04-18T17:50:46.817Z,6.88
2023-04-18T17:53:49.197Z,6.15
2023-04-18T17:56:51.704Z,6.47
2023-04-18T17:59:54.201Z,6.15
2023-04-18T18:02:57.324Z,7.63
2023-04-18T18:05:59.885Z,5.22
2023-04-18T18:09:02.066Z,5.20
2023-04-18T18:12:04.586Z,7.73
2023-04-18T18:15:10.167Z,6.20
2023-04-18T18:18:12.763Z,5.53
2023-04-18T18:21:15.162Z,5.43
2023-04-18T18:24:18.742Z,6.30
2023-04-18T18:27:21.179Z,6.23
2023-04-18T18:30:23.633Z,4.63
2023-04-18T18:33:26.184Z,7.70
2023-04-18T18:36:28.642Z,7.85
2023-04-18T18:39:31.044Z,5.78
2023-04-18T18:42:33.454Z,5.50
2023-04-18T18:45:35.926Z,6.03
2023-04-18T18:48:39.185Z,7.65
2023-04-18T18:51:41.817Z,10.65
2023-04-18T18:54:44.626Z,9.93
2023-04-18T18:57:47.099Z,9.73
2023-04-18T19:00:51.119Z,9.30
2023-04-18T19:03:53.663Z,9.48
2023-04-18T19:06:56.320Z,7.53
2023-04-18T19:10:02.100Z,8.07
2023-04-18T19:13:04.664Z,6.97
2023-04-18T19:16:08.136Z,6.35
2023-04-18T19:19:10.900Z,6.38
2023-04-18T19:22:13.271Z,10.60
2023-04-18T19:25:16.905Z,6.93
2023-04-18T19:28:19.290Z,6.67
2023-04-18T19:31:21.733Z,5.55
2023-04-18T19:34:24.219Z,8.50
2023-04-18T19:37:26.596Z,5.68
2023-04-18T19:40:29.982Z,6.22
2023-04-18T19:43:32.453Z,4.27
2023-04-18T19:46:34.922Z,4.55
2023-04-18T19:49:37.388Z,5.00
2023-04-18T19:52:39.653Z,5.32
2023-04-18T19:55:44.378Z,4.47
2023-04-18T19:58:46.989Z,4.53
2023-04-18T20:01:49.455Z,4.78
2023-04-18T20:04:52.014Z,4.45
2023-04-18T20:07:54.628Z,4.45
2023-04-18T20:10:56.822Z,3.60
2023-04-18T20:13:59.327Z,6.73
2023-04-18T20:17:01.915Z,6.50
2023-04-18T20:20:04.668Z,4.28
2023-04-18T20:23:07.416Z,3.45
2023-04-18T20:26:09.811Z,4.38
2023-04-18T20:29:15.274Z,3.37
2023-04-18T20:32:17.820Z,3.78
2023-04-18T20:35:20.298Z,3.63
2023-04-18T20:38:26.182Z,3.08
2023-04-18T20:41:31.060Z,4.65
2023-04-18T20:44:35.173Z,3.80
2023-04-18T20:47:37.784Z,4.20
2023-04-18T20:50:40.227Z,3.58
2023-04-18T20:53:43.118Z,5.10
2023-04-18T20:56:45.441Z,3.88
2023-04-18T20:59:47.685Z,4.00
2023-04-18T21:02:50.118Z,4.32
2023-04-18T21:05:52.553Z,2.72
2023-04-18T21:08:54.772Z,5.53
2023-04-18T21:11:58.571Z,5.65
2023-04-18T21:15:01.053Z,5.27
2023-04-18T21:18:03.337Z,3.80
2023-04-18T21:21:05.820Z,4.28
2023-04-18T21:24:08.041Z,4.45
2023-04-18T21:27:13.447Z,3.65
2023-04-18T21:30:15.930Z,4.77
2023-04-18T21:33:19.314Z,5.72
2023-04-18T21:36:21.751Z,7.60
2023-04-18T21:39:24.185Z,5.25
2023-04-18T21:42:26.946Z,5.45
2023-04-18T21:45:29.262Z,5.63
2023-04-18T21:48:31.608Z,5.85
2023-04-18T21:51:33.916Z,5.30
2023-04-18T21:54:36.174Z,4.65
2023-04-18T21:57:38.558Z,5.70
2023-04-18T22:00:40.938Z,4.93
2023-04-18T22:03:43.554Z,3.80
2023-04-18T22:06:46.132Z,4.78
2023-04-18T22:09:48.462Z,5.38
2023-04-18T22:12:51.514Z,4.88
2023-04-18T22:15:53.742Z,5.83
2023-04-18T22:18:56.178Z,4.85
2023-04-18T22:21:58.538Z,4.63
2023-04-18T22:25:00.828Z,4.45
2023-04-18T22:28:03.880Z,7.57
2023-04-18T22:31:06.319Z,5.23
2023-04-18T22:34:08.630Z,6.03
2023-04-18T22:37:10.879Z,4.70
2023-04-18T22:40:13.408Z,4.32
2023-04-18T22:43:15.671Z,5.00
2023-04-18T22:46:18.023Z,5.33
2023-04-18T22:49:20.725Z,4.78
2023-04-18T22:52:25.979Z,6.22
2023-04-18T22:55:28.207Z,5.85
2023-04-18T22:58:31.416Z,5.07
2023-04-18T23:01:33.737Z,4.97
2023-04-18T23:04:36.214Z,5.30
2023-04-18T23:07:38.683Z,5.68
2023-04-18T23:10:41.030Z,7.28
2023-04-18T23:13:43.310Z,5.40
2023-04-18T23:16:45.651Z,6.10
2023-04-18T23:19:47.991Z,5.10
2023-04-18T23:22:51.872Z,5.43
2023-04-18T23:25:55.322Z,5.40
2023-04-18T23:28:57.633Z,5.90
2023-04-18T23:31:59.895Z,4.77
2023-04-18T23:35:05.110Z,6.03
2023-04-18T23:38:07.473Z,5.97
2023-04-18T23:41:09.801Z,5.47
2023-04-18T23:44:12.105Z,5.75
2023-04-18T23:47:14.475Z,7.63
2023-04-18T23:50:16.917Z,5.50
2023-04-18T23:53:19.575Z,5.85
2023-04-18T23:56:23.271Z,8.40
2023-04-18T23:59:25.528Z,6.95
